Time;durP1;ratioP1;P1;durP2;ratioP2;P2;SDS_P1;SDS_P2;PMS_P1;PMS_P2;Temp;Humidity;BMP_temperature;BMP_pressure;BME280_temperature;BME280_humidity;BME280_pressure;Samples;Min_cycle;Max_cycle;Signal;HPM_P1;HPM_P2
2022/03/16 00:02:20;;;;;;;22.57;20.17;;;15.60;59.50;;;;;;5023925;28;20276;-45
2022/03/16 00:04:56;;;;;;;23.67;20.47;;;15.60;59.50;;;;;;5019717;28;20228;-45
2022/03/16 00:07:22;;;;;;;23.30;20.80;;;15.70;59.30;;;;;;5028483;28;20455;-44
2022/03/16 00:09:48;;;;;;;25.33;21.90;;;15.70;59.60;;;;;;5024192;28;20445;-46
2022/03/16 00:12:15;;;;;;;26.00;22.93;;;15.70;59.60;;;;;;5022506;28;20781;-46
2022/03/16 00:14:41;;;;;;;26.17;23.37;;;15.70;59.40;;;;;;5023662;28;20444;-45
2022/03/16 00:17:08;;;;;;;28.60;24.10;;;15.70;59.30;;;;;;5020604;28;20441;-45
2022/03/16 00:19:34;;;;;;;25.20;21.97;;;15.70;59.10;;;;;;5021977;28;20558;-46
2022/03/16 00:22:02;;;;;;;25.37;22.67;;;15.70;59.20;;;;;;5027680;28;20598;-45
2022/03/16 00:24:27;;;;;;;27.57;23.47;;;15.70;59.10;;;;;;5013731;28;20205;-46
2022/03/16 00:26:53;;;;;;;27.67;24.43;;;15.70;59.30;;;;;;5023945;28;20441;-45
2022/03/16 00:29:19;;;;;;;26.40;23.63;;;15.70;59.40;;;;;;5023287;28;20679;-45
2022/03/16 00:31:45;;;;;;;25.87;23.20;;;15.60;59.30;;;;;;5018374;28;20197;-45
2022/03/16 00:34:11;;;;;;;23.43;21.00;;;15.60;59.50;;;;;;5020778;28;20431;-45
2022/03/16 00:36:37;;;;;;;23.37;20.80;;;15.60;59.50;;;;;;5019255;28;20544;-45
2022/03/16 00:39:04;;;;;;;24.40;21.70;;;15.60;60.30;;;;;;5017900;28;20193;-46
2022/03/16 00:41:30;;;;;;;25.53;22.90;;;15.70;59.50;;;;;;5026531;28;20447;-45
2022/03/16 00:43:55;;;;;;;24.00;21.40;;;15.70;59.40;;;;;;5023011;28;20522;-46
2022/03/16 00:46:21;;;;;;;24.70;21.30;;;15.70;59.40;;;;;;5017626;28;20732;-45
2022/03/16 00:48:47;;;;;;;23.67;21.27;;;15.70;59.50;;;;;;5020499;28;20223;-44
2022/03/16 00:51:13;;;;;;;24.40;21.80;;;15.70;59.30;;;;;;5026398;28;20190;-44
2022/03/16 00:53:39;;;;;;;25.67;22.87;;;15.70;59.20;;;;;;5018076;28;20200;-46
2022/03/16 00:56:06;;;;;;;26.97;24.07;;;15.70;59.30;;;;;;5024863;28;20202;-48
2022/03/16 00:58:31;;;;;;;24.90;22.13;;;15.70;59.30;;;;;;5024748;28;20963;-48
2022/03/16 01:00:58;;;;;;;26.00;22.70;;;15.70;59.30;;;;;;5024073;28;20443;-46
2022/03/16 01:03:24;;;;;;;24.93;22.23;;;15.60;59.30;;;;;;5019334;28;20193;-45
2022/03/16 01:05:50;;;;;;;26.77;23.70;;;15.60;59.40;;;;;;5019835;28;20491;-45
2022/03/16 01:08:16;;;;;;;25.70;22.83;;;15.60;59.40;;;;;;5024926;28;20440;-47
2022/03/16 01:10:41;;;;;;;26.33;22.57;;;15.60;60.10;;;;;;5028119;28;20202;-44
2022/03/16 01:13:07;;;;;;;26.77;22.90;;;15.60;59.50;;;;;;5022167;28;20255;-45
2022/03/16 01:15:33;;;;;;;27.70;23.83;;;15.70;59.50;;;;;;5018646;28;20265;-46
2022/03/16 01:17:58;;;;;;;27.37;22.53;;;15.60;59.40;;;;;;5021793;28;20209;-46
2022/03/16 01:20:24;;;;;;;27.93;23.67;;;15.60;59.50;;;;;;5020059;28;20323;-45
2022/03/16 01:22:49;;;;;;;25.67;22.30;;;15.60;59.60;;;;;;5021845;28;21119;-46
2022/03/16 01:25:15;;;;;;;25.87;23.17;;;15.60;59.70;;;;;;5025052;28;20228;-45
2022/03/16 01:27:40;;;;;;;27.13;23.57;;;15.60;59.60;;;;;;5021255;28;20644;-45
2022/03/16 01:30:07;;;;;;;26.33;22.60;;;15.60;59.50;;;;;;5022500;28;20576;-45
2022/03/16 01:32:33;;;;;;;28.57;25.47;;;15.70;59.50;;;;;;5026412;28;20193;-44
2022/03/16 01:34:59;;;;;;;27.70;23.27;;;15.60;59.30;;;;;;5015523;28;20459;-44
2022/03/16 01:37:24;;;;;;;27.67;24.47;;;15.60;59.20;;;;;;5026809;28;20448;-45
2022/03/16 01:39:50;;;;;;;26.17;22.80;;;15.60;59.30;;;;;;5023154;28;20201;-46
2022/03/16 01:42:16;;;;;;;29.63;23.50;;;15.60;59.40;;;;;;5018452;28;20208;-45
2022/03/16 01:44:48;;;;;;;28.90;23.67;;;15.60;59.50;;;;;;5017783;28;20196;-45
2022/03/16 01:47:14;;;;;;;29.93;24.87;;;15.60;59.40;;;;;;5022456;28;20194;-46
2022/03/16 01:49:40;;;;;;;27.53;23.83;;;15.70;59.40;;;;;;5021248;28;20432;-45
2022/03/16 01:52:07;;;;;;;28.27;23.50;;;15.70;59.10;;;;;;5025231;28;20458;-45
2022/03/16 01:54:33;;;;;;;29.37;24.17;;;15.70;59.00;;;;;;5023281;28;20728;-45
2022/03/16 01:56:59;;;;;;;31.63;24.63;;;15.80;59.00;;;;;;5023686;28;20650;-45
2022/03/16 01:59:24;;;;;;;28.10;23.30;;;15.80;58.80;;;;;;5019890;28;20197;-46
2022/03/16 02:01:50;;;;;;;32.13;24.93;;;15.80;58.70;;;;;;5022516;28;20451;-44
2022/03/16 02:04:15;;;;;;;31.13;24.70;;;15.70;58.70;;;;;;5020199;28;20672;-46
2022/03/16 02:06:41;;;;;;;30.17;25.00;;;15.70;58.80;;;;;;5023642;28;20248;-45
2022/03/16 02:09:07;;;;;;;28.87;25.77;;;15.60;58.70;;;;;;5015133;28;20936;-45
2022/03/16 02:11:32;;;;;;;29.07;24.20;;;15.60;59.10;;;;;;5025555;28;20571;-45
2022/03/16 02:13:58;;;;;;;28.40;24.40;;;15.60;59.40;;;;;;5020282;28;20224;-45
2022/03/16 02:16:23;;;;;;;29.43;25.97;;;15.60;59.50;;;;;;5023397;28;20712;-47
2022/03/16 02:18:49;;;;;;;28.07;24.70;;;15.60;59.40;;;;;;5021654;28;20263;-45
2022/03/16 02:21:16;;;;;;;30.17;25.07;;;15.60;59.30;;;;;;5018326;28;20232;-48
2022/03/16 02:23:42;;;;;;;29.20;25.10;;;15.60;59.10;;;;;;5022897;28;20569;-49
2022/03/16 02:26:14;;;;;;;31.87;26.53;;;15.60;59.20;;;;;;5021248;28;20582;-47
2022/03/16 02:28:40;;;;;;;28.93;24.37;;;15.60;59.20;;;;;;5016299;28;20204;-46
2022/03/16 02:31:06;;;;;;;28.30;25.20;;;15.60;59.10;;;;;;5016612;28;20440;-46
2022/03/16 02:33:31;;;;;;;28.87;24.13;;;15.60;59.20;;;;;;5019855;28;20595;-48
2022/03/16 02:35:57;;;;;;;28.27;24.90;;;15.60;59.30;;;;;;5018195;28;20440;-49
2022/03/16 02:38:23;;;;;;;29.23;24.67;;;15.60;59.20;;;;;;5018864;28;20193;-45
2022/03/16 02:40:48;;;;;;;29.30;23.83;;;15.60;59.20;;;;;;5022819;28;20193;-47
2022/03/16 02:43:14;;;;;;;30.83;25.93;;;15.70;59.20;;;;;;5022059;28;20734;-46
2022/03/16 02:45:40;;;;;;;32.40;26.23;;;15.60;58.90;;;;;;5026041;28;20692;-48
2022/03/16 02:48:05;;;;;;;31.20;26.53;;;15.70;59.00;;;;;;5017049;28;20201;-46
2022/03/16 02:50:32;;;;;;;33.13;26.87;;;15.60;58.90;;;;;;5022558;28;20233;-46
2022/03/16 02:52:58;;;;;;;25.27;22.40;;;15.70;59.00;;;;;;5023278;28;20615;-49
2022/03/16 02:55:24;;;;;;;30.10;25.27;;;15.70;58.90;;;;;;5018278;28;20555;-46
2022/03/16 02:57:49;;;;;;;30.90;26.40;;;15.70;58.80;;;;;;5022333;28;20903;-48
2022/03/16 03:00:15;;;;;;;28.50;24.70;;;15.70;58.70;;;;;;5018006;28;20197;-50
2022/03/16 03:02:41;;;;;;;27.87;24.10;;;15.80;58.70;;;;;;5019837;28;20193;-48
2022/03/16 03:05:08;;;;;;;28.77;24.77;;;15.80;58.70;;;;;;5023226;28;20571;-47
2022/03/16 03:07:33;;;;;;;30.27;25.50;;;15.80;58.70;;;;;;5023128;28;20201;-49
2022/03/16 03:09:59;;;;;;;34.40;27.10;;;15.80;58.70;;;;;;5022066;28;20452;-45
2022/03/16 03:12:25;;;;;;;33.57;26.90;;;15.80;58.60;;;;;;5024593;28;20586;-45
2022/03/16 03:14:50;;;;;;;32.60;25.70;;;15.80;58.50;;;;;;5022005;28;20201;-46
2022/03/16 03:17:16;;;;;;;34.07;26.90;;;15.70;58.60;;;;;;5022790;28;20913;-45
2022/03/16 03:19:43;;;;;;;36.93;26.67;;;15.70;58.50;;;;;;5019256;28;20723;-45
2022/03/16 03:22:09;;;;;;;34.67;28.37;;;15.70;58.50;;;;;;5023462;28;20197;-44
2022/03/16 03:24:35;;;;;;;34.17;28.90;;;15.80;58.40;;;;;;5029562;28;20935;-45
2022/03/16 03:27:01;;;;;;;34.20;27.43;;;15.80;58.40;;;;;;5022772;28;20444;-45
2022/03/16 03:29:27;;;;;;;35.27;27.80;;;15.80;58.20;;;;;;5024137;28;20444;-46
2022/03/16 03:31:52;;;;;;;33.37;27.47;;;15.80;58.00;;;;;;5017277;28;21109;-45
2022/03/16 03:34:18;;;;;;;33.80;27.67;;;15.80;58.10;;;;;;5028398;28;20198;-46
2022/03/16 03:36:44;;;;;;;33.60;26.97;;;15.90;58.20;;;;;;5015228;28;20646;-44
2022/03/16 03:39:10;;;;;;;33.93;26.03;;;15.90;58.10;;;;;;5025311;28;20197;-45
2022/03/16 03:41:36;;;;;;;31.70;26.70;;;15.90;58.00;;;;;;5020069;28;20288;-44
2022/03/16 03:44:02;;;;;;;33.73;26.90;;;15.80;57.90;;;;;;5024169;28;20906;-44
2022/03/16 03:46:27;;;;;;;34.47;28.60;;;15.80;58.00;;;;;;5017886;28;20500;-44
2022/03/16 03:48:53;;;;;;;37.13;28.43;;;15.80;58.10;;;;;;5019204;28;20243;-45
2022/03/16 03:51:19;;;;;;;31.10;25.70;;;15.80;58.20;;;;;;5022613;28;20201;-44
2022/03/16 03:53:44;;;;;;;32.30;27.13;;;15.90;58.20;;;;;;5021132;28;20202;-44
2022/03/16 03:56:10;;;;;;;33.07;27.10;;;15.90;58.20;;;;;;5026134;28;20634;-48
2022/03/16 03:58:37;;;;;;;34.47;26.90;;;15.90;58.30;;;;;;5026032;28;20193;-44
2022/03/16 04:01:03;;;;;;;31.53;27.27;;;15.90;58.20;;;;;;5025393;28;20272;-45
2022/03/16 04:03:29;;;;;;;33.23;26.50;;;15.90;58.20;;;;;;5020702;28;20468;-45
2022/03/16 04:05:55;;;;;;;33.10;26.07;;;15.90;58.00;;;;;;5026142;28;21064;-44
2022/03/16 04:08:20;;;;;;;33.23;26.30;;;15.80;58.10;;;;;;5027122;28;20625;-44
2022/03/16 04:10:46;;;;;;;33.27;25.67;;;15.80;58.40;;;;;;5022579;28;20232;-44
2022/03/16 04:13:11;;;;;;;29.10;24.40;;;15.80;58.40;;;;;;5023940;28;20194;-44
2022/03/16 04:15:37;;;;;;;33.30;26.93;;;15.80;58.40;;;;;;5023284;28;20194;-45
2022/03/16 04:18:03;;;;;;;30.57;25.17;;;15.80;58.40;;;;;;5021986;28;20601;-47
2022/03/16 04:20:29;;;;;;;30.47;25.70;;;15.80;58.30;;;;;;5027949;28;20479;-45
2022/03/16 04:22:54;;;;;;;32.03;26.20;;;15.90;58.30;;;;;;5022457;28;20185;-45
2022/03/16 04:25:20;;;;;;;32.57;25.87;;;15.80;58.10;;;;;;5018165;28;20663;-45
2022/03/16 04:27:45;;;;;;;31.90;26.27;;;15.80;58.20;;;;;;5019789;28;20190;-45
2022/03/16 04:30:11;;;;;;;32.83;26.50;;;15.90;58.30;;;;;;5021817;28;20202;-44
2022/03/16 04:32:37;;;;;;;30.30;24.40;;;15.90;58.20;;;;;;5026216;28;20198;-44
2022/03/16 04:35:03;;;;;;;32.30;26.57;;;15.90;58.20;;;;;;5025520;28;20470;-44
2022/03/16 04:37:28;;;;;;;30.80;24.87;;;15.90;58.50;;;;;;5018395;28;20661;-44
2022/03/16 04:39:54;;;;;;;32.53;26.30;;;15.80;58.10;;;;;;5020578;28;20343;-44
2022/03/16 04:42:19;;;;;;;31.47;25.97;;;15.90;58.40;;;;;;5021212;28;20197;-46
2022/03/16 04:44:45;;;;;;;32.20;26.13;;;15.90;58.40;;;;;;5018037;28;20280;-46
2022/03/16 04:47:11;;;;;;;32.63;25.10;;;15.90;58.20;;;;;;5029410;28;20189;-44
2022/03/16 04:49:36;;;;;;;29.77;24.10;;;15.90;58.20;;;;;;5018717;28;20189;-44
2022/03/16 04:52:02;;;;;;;33.27;26.23;;;15.90;58.10;;;;;;5024410;28;20228;-44
2022/03/16 04:54:28;;;;;;;30.80;25.00;;;15.90;58.10;;;;;;5024523;28;20645;-48
2022/03/16 04:56:55;;;;;;;30.67;25.37;;;15.90;57.90;;;;;;5018117;28;20452;-44
2022/03/16 04:59:21;;;;;;;28.60;24.30;;;15.80;57.80;;;;;;5018910;28;20535;-47
2022/03/16 05:01:47;;;;;;;28.10;23.90;;;15.80;57.90;;;;;;5028975;28;20539;-48
2022/03/16 05:04:13;;;;;;;36.30;26.60;;;15.60;57.90;;;;;;5022325;28;20646;-44
2022/03/16 05:06:38;;;;;;;37.00;27.47;;;15.50;58.30;;;;;;5017504;28;20276;-45
2022/03/16 05:09:04;;;;;;;36.00;29.20;;;15.40;58.60;;;;;;5022815;28;21316;-45
2022/03/16 05:11:29;;;;;;;38.10;28.20;;;15.30;58.90;;;;;;5024419;28;20279;-45
2022/03/16 05:13:56;;;;;;;38.33;28.43;;;15.20;59.00;;;;;;5017039;28;20278;-44
2022/03/16 05:16:22;;;;;;;34.13;28.67;;;15.10;59.50;;;;;;5016848;28;20202;-46
2022/03/16 05:18:47;;;;;;;37.73;29.23;;;15.10;59.80;;;;;;5014963;28;20436;-45
2022/03/16 05:21:13;;;;;;;38.60;30.07;;;15.00;59.90;;;;;;5019936;28;20272;-45
2022/03/16 05:23:40;;;;;;;39.73;30.53;;;15.00;60.00;;;;;;5015459;28;20719;-44
2022/03/16 05:26:06;;;;;;;38.23;29.23;;;15.00;60.40;;;;;;5022977;28;20542;-44
2022/03/16 05:28:32;;;;;;;39.87;31.10;;;14.90;60.90;;;;;;5021697;28;20452;-47
2022/03/16 05:30:58;;;;;;;36.17;27.97;;;14.80;61.10;;;;;;5021877;28;20286;-45
2022/03/16 05:33:24;;;;;;;40.17;29.90;;;14.80;61.50;;;;;;5023048;28;20558;-47
2022/03/16 05:35:50;;;;;;;39.87;29.70;;;14.80;61.50;;;;;;5019727;28;20559;-46
2022/03/16 05:38:16;;;;;;;42.30;29.70;;;14.80;61.50;;;;;;5016403;28;20529;-47
2022/03/16 05:40:42;;;;;;;37.07;30.80;;;14.70;61.70;;;;;;5026734;28;20551;-46
2022/03/16 05:43:09;;;;;;;37.77;29.70;;;14.60;61.90;;;;;;5020346;28;20692;-46
2022/03/16 05:45:36;;;;;;;40.87;29.10;;;14.40;62.30;;;;;;5025819;28;20982;-46
2022/03/16 05:48:02;;;;;;;38.17;28.87;;;13.90;64.00;;;;;;5024562;28;20436;-47
2022/03/16 05:50:28;;;;;;;44.90;30.80;;;13.60;66.00;;;;;;5023393;28;20478;-48
2022/03/16 05:53:01;;;;;;;39.90;28.80;;;13.70;66.00;;;;;;5022980;28;20447;-46
2022/03/16 05:55:27;;;;;;;44.93;31.57;;;13.70;65.90;;;;;;5016968;28;20448;-46
2022/03/16 05:57:53;;;;;;;42.43;28.13;;;13.60;65.70;;;;;;5022356;28;20444;-45
2022/03/16 06:00:21;;;;;;;42.93;29.50;;;13.10;65.90;;;;;;5018667;28;20497;-47
2022/03/16 06:02:48;;;;;;;41.00;28.00;;;12.90;66.80;;;;;;5018070;28;20205;-45
2022/03/16 06:05:15;;;;;;;43.50;28.70;;;12.70;67.40;;;;;;5024296;28;21033;-45
2022/03/16 06:07:41;;;;;;;38.03;25.97;;;12.50;68.40;;;;;;5024254;28;20432;-46
2022/03/16 06:10:08;;;;;;;38.00;22.90;;;12.30;68.60;;;;;;5015671;28;20932;-48
2022/03/16 06:12:48;;;;;;;34.60;23.53;;;12.30;69.40;;;;;;5019966;28;21057;-46
2022/03/16 06:15:13;;;;;;;34.10;21.30;;;12.40;68.20;;;;;;5020826;28;20939;-45
2022/03/16 06:17:39;;;;;;;33.47;22.57;;;12.50;67.00;;;;;;5020740;28;20493;-44
2022/03/16 06:20:05;;;;;;;30.67;22.90;;;12.50;66.70;;;;;;5018490;28;20676;-45
2022/03/16 06:22:30;;;;;;;31.33;22.73;;;12.40;66.10;;;;;;5020400;28;20206;-45
2022/03/16 06:24:56;;;;;;;34.70;24.53;;;12.60;66.40;;;;;;5013288;28;20503;-44
2022/03/16 06:27:22;;;;;;;29.77;23.23;;;12.60;64.90;;;;;;5022507;28;20193;-45
2022/03/16 06:29:47;;;;;;;29.60;21.50;;;12.60;65.70;;;;;;5016920;28;20231;-48
2022/03/16 06:32:13;;;;;;;31.17;21.87;;;12.60;65.50;;;;;;5022670;28;20338;-45
2022/03/16 06:34:38;;;;;;;32.60;21.77;;;12.40;65.60;;;;;;5016412;28;20243;-45
2022/03/16 06:37:04;;;;;;;31.47;23.50;;;12.80;65.30;;;;;;5021776;28;20193;-44
2022/03/16 06:39:30;;;;;;;28.77;20.70;;;12.60;64.40;;;;;;5015188;28;20221;-45
2022/03/16 06:41:55;;;;;;;26.90;21.97;;;12.30;65.40;;;;;;5025386;28;20196;-46
2022/03/16 06:44:21;;;;;;;28.43;20.67;;;12.40;65.60;;;;;;5020279;28;20190;-44
2022/03/16 06:46:48;;;;;;;30.67;23.30;;;12.20;65.40;;;;;;5022356;28;20298;-45
2022/03/16 06:49:14;;;;;;;33.57;23.67;;;12.00;65.60;;;;;;5032245;28;20268;-45
2022/03/16 06:51:39;;;;;;;30.90;23.03;;;11.80;66.00;;;;;;5023566;28;20545;-44
2022/03/16 06:54:05;;;;;;;31.10;23.40;;;11.90;66.80;;;;;;5021404;28;20232;-44
2022/03/16 06:56:31;;;;;;;28.80;21.70;;;11.70;66.60;;;;;;5019943;28;20193;-47
2022/03/16 06:58:56;;;;;;;38.57;26.03;;;11.50;67.50;;;;;;5030243;28;20619;-44
2022/03/16 07:01:22;;;;;;;33.97;22.93;;;11.40;68.30;;;;;;5022736;28;20186;-45
2022/03/16 07:03:47;;;;;;;31.03;22.90;;;11.80;67.70;;;;;;5023821;28;20248;-45
2022/03/16 07:06:13;;;;;;;30.23;21.00;;;11.90;66.30;;;;;;5027076;28;20225;-44
2022/03/16 07:08:39;;;;;;;30.43;23.00;;;11.90;66.20;;;;;;5025479;28;20198;-44
2022/03/16 07:11:07;;;;;;;30.70;21.90;;;11.80;66.20;;;;;;5029554;28;20193;-45
2022/03/16 07:13:33;;;;;;;33.57;23.77;;;11.80;66.30;;;;;;5027924;28;20193;-46
2022/03/16 07:15:58;;;;;;;31.93;22.13;;;12.00;66.80;;;;;;5021045;28;20467;-47
2022/03/16 07:18:24;;;;;;;39.43;24.30;;;12.00;66.10;;;;;;5040714;28;20802;-47
2022/03/16 07:20:50;;;;;;;35.33;23.47;;;12.20;65.10;;;;;;5020082;28;20299;-46
2022/03/16 07:23:18;;;;;;;30.90;22.30;;;12.50;64.40;;;;;;5018667;28;20229;-46
2022/03/16 07:25:48;;;;;;;33.73;23.03;;;12.50;63.90;;;;;;5026831;28;20321;-47
2022/03/16 07:28:15;;;;;;;27.13;20.90;;;12.50;63.70;;;;;;5028120;28;20513;-47
2022/03/16 07:30:42;;;;;;;26.17;21.10;;;12.50;64.00;;;;;;5029299;28;20514;-47
2022/03/16 07:33:09;;;;;;;32.53;23.00;;;12.60;63.80;;;;;;5027543;28;20447;-46
2022/03/16 07:35:35;;;;;;;32.17;23.37;;;12.70;63.20;;;;;;5024233;28;20439;-47
2022/03/16 07:38:02;;;;;;;31.13;22.63;;;12.80;62.90;;;;;;5024255;28;20471;-47
2022/03/16 07:40:30;;;;;;;28.57;21.20;;;12.90;62.30;;;;;;5009658;28;20452;-46
2022/03/16 07:42:56;;;;;;;28.30;21.20;;;12.90;62.40;;;;;;5024121;28;20444;-46
2022/03/16 07:45:22;;;;;;;28.67;21.90;;;12.70;62.40;;;;;;5028575;28;20497;-47
2022/03/16 07:47:49;;;;;;;26.67;20.90;;;13.00;62.70;;;;;;5023967;28;20193;-48
2022/03/16 07:50:16;;;;;;;27.07;20.57;;;13.00;61.60;;;;;;5026860;28;20251;-46
2022/03/16 07:52:41;;;;;;;27.23;17.60;;;13.00;61.50;;;;;;5022678;28;20429;-49
2022/03/16 07:55:09;;;;;;;21.43;15.47;;;12.90;61.90;;;;;;5029120;28;20522;-45
2022/03/16 07:57:35;;;;;;;21.67;16.90;;;13.10;61.60;;;;;;5023367;28;20441;-46
2022/03/16 08:00:06;;;;;;;23.37;17.57;;;13.10;61.40;;;;;;5019592;28;20477;-47
2022/03/16 08:02:32;;;;;;;23.90;18.60;;;13.20;61.00;;;;;;5034408;28;20547;-48
2022/03/16 08:05:00;;;;;;;22.60;17.93;;;13.30;60.80;;;;;;5022875;28;20935;-47
2022/03/16 08:07:26;;;;;;;23.17;18.50;;;13.40;60.10;;;;;;5023918;28;20190;-46
2022/03/16 08:09:52;;;;;;;23.33;17.27;;;13.40;60.20;;;;;;5021308;28;20524;-49
2022/03/16 08:12:18;;;;;;;27.60;19.73;;;13.50;59.60;;;;;;5023530;28;20538;-46
2022/03/16 08:14:43;;;;;;;21.90;17.17;;;13.70;59.70;;;;;;5023115;28;20199;-47
2022/03/16 08:17:09;;;;;;;24.10;19.17;;;13.80;59.30;;;;;;5025532;28;20186;-48
2022/03/16 08:19:34;;;;;;;22.27;18.60;;;13.70;59.20;;;;;;5025652;28;20237;-47
2022/03/16 08:22:01;;;;;;;24.77;19.47;;;13.50;59.30;;;;;;5024395;28;20769;-47
2022/03/16 08:24:26;;;;;;;24.87;19.30;;;13.20;59.90;;;;;;5024765;28;20197;-47
2022/03/16 08:26:52;;;;;;;26.40;19.47;;;12.90;61.00;;;;;;5022585;28;20483;-50
2022/03/16 08:29:18;;;;;;;23.87;18.70;;;12.80;61.90;;;;;;5013225;28;20279;-49
2022/03/16 08:31:43;;;;;;;20.57;17.00;;;12.80;62.00;;;;;;5021905;28;20219;-46
2022/03/16 08:34:09;;;;;;;25.10;18.40;;;12.80;62.60;;;;;;5019732;28;20204;-47
2022/03/16 08:36:35;;;;;;;23.63;17.73;;;12.70;61.90;;;;;;5024524;28;20186;-47
2022/03/16 08:39:02;;;;;;;22.83;17.40;;;12.60;62.70;;;;;;5022438;28;20716;-48
2022/03/16 08:41:28;;;;;;;23.30;17.47;;;12.40;63.40;;;;;;5018409;28;20206;-46
2022/03/16 08:43:54;;;;;;;23.17;18.97;;;12.70;63.60;;;;;;5019905;28;21149;-47
2022/03/16 08:46:19;;;;;;;22.93;18.00;;;12.30;63.20;;;;;;5014644;28;20480;-47
2022/03/16 08:48:45;;;;;;;24.60;16.73;;;12.20;64.90;;;;;;5016304;28;20193;-46
2022/03/16 08:51:11;;;;;;;25.13;18.00;;;11.90;65.10;;;;;;5015495;28;20715;-46
2022/03/16 08:53:37;;;;;;;22.30;18.30;;;11.80;66.80;;;;;;5031254;28;20660;-45
2022/03/16 08:56:03;;;;;;;22.00;18.50;;;12.00;65.80;;;;;;5024703;28;20649;-46
2022/03/16 08:58:29;;;;;;;24.20;19.43;;;12.00;66.50;;;;;;5021003;28;20228;-47
2022/03/16 09:00:55;;;;;;;25.23;18.90;;;11.90;65.70;;;;;;5024266;28;20448;-46
2022/03/16 09:03:20;;;;;;;23.60;19.70;;;12.00;66.80;;;;;;5026147;28;20886;-47
2022/03/16 09:05:46;;;;;;;23.27;18.27;;;12.30;66.50;;;;;;5021413;28;20328;-46
2022/03/16 09:08:12;;;;;;;25.87;19.23;;;12.20;66.20;;;;;;5023441;28;20289;-46
2022/03/16 09:10:38;;;;;;;28.37;20.93;;;12.20;66.70;;;;;;5019551;28;20197;-45
2022/03/16 09:13:04;;;;;;;26.77;20.57;;;12.20;66.60;;;;;;5035669;28;20954;-46
2022/03/16 09:15:30;;;;;;;29.93;21.47;;;12.20;66.80;;;;;;5029882;28;20200;-46
2022/03/16 09:17:56;;;;;;;27.30;19.83;;;12.00;67.40;;;;;;5020836;28;21003;-45
2022/03/16 09:20:22;;;;;;;25.97;19.90;;;11.90;68.00;;;;;;5026407;28;20554;-46
2022/03/16 09:22:47;;;;;;;28.53;20.87;;;11.80;68.70;;;;;;5024496;28;20197;-46
2022/03/16 09:25:13;;;;;;;25.47;19.17;;;11.90;68.30;;;;;;5028588;28;20278;-46
2022/03/16 09:27:38;;;;;;;25.07;20.33;;;11.90;68.80;;;;;;5019242;28;20197;-48
2022/03/16 09:30:05;;;;;;;25.60;19.73;;;11.80;68.80;;;;;;5025767;28;20201;-46
2022/03/16 09:32:33;;;;;;;24.53;18.17;;;11.80;69.80;;;;;;5022347;28;20276;-47
2022/03/16 09:34:59;;;;;;;26.47;18.70;;;11.80;69.00;;;;;;5020377;28;20439;-47
2022/03/16 09:37:25;;;;;;;25.13;20.10;;;11.50;69.50;;;;;;5027453;28;20436;-47
2022/03/16 09:39:51;;;;;;;25.20;18.50;;;11.40;70.80;;;;;;5022657;28;20467;-47
2022/03/16 09:42:19;;;;;;;26.43;20.13;;;11.50;70.90;;;;;;5013689;28;20240;-46
2022/03/16 09:44:46;;;;;;;22.63;18.80;;;11.50;70.90;;;;;;5021016;28;20540;-46
2022/03/16 09:47:12;;;;;;;25.30;19.40;;;11.90;70.20;;;;;;5020949;28;20510;-46
2022/03/16 09:49:38;;;;;;;26.20;19.00;;;11.90;69.10;;;;;;5023954;28;20853;-49
2022/03/16 09:52:07;;;;;;;25.70;20.30;;;11.80;69.60;;;;;;5020684;28;20494;-46
2022/03/16 09:54:33;;;;;;;25.93;21.13;;;12.00;69.70;;;;;;5027465;28;20440;-46
2022/03/16 09:56:59;;;;;;;28.70;21.07;;;12.40;68.40;;;;;;5025421;28;20491;-46
2022/03/16 09:59:24;;;;;;;28.33;20.27;;;12.30;66.60;;;;;;5025492;28;21012;-49
2022/03/16 10:02:06;;;;;;;25.60;18.93;;;12.40;67.40;;;;;;5019598;28;20433;-47
2022/03/16 10:04:34;;;;;;;28.43;20.67;;;12.20;67.30;;;;;;5026126;28;20197;-49
2022/03/16 10:07:00;;;;;;;26.33;20.40;;;11.90;68.10;;;;;;5029092;28;21238;-46
2022/03/16 10:15:14;;;;;;;23.80;18.80;;;11.80;68.60;;;;;;5027913;28;20435;-46
2022/03/16 10:17:44;;;;;;;25.17;19.73;;;12.10;68.20;;;;;;5027995;28;20477;-46
2022/03/16 10:20:21;;;;;;;28.53;18.70;;;12.20;67.70;;;;;;5032050;28;20836;-48
2022/03/16 10:23:01;;;;;;;26.23;18.20;;;12.20;66.10;;;;;;5027381;28;20424;-49
2022/03/16 10:25:29;;;;;;;21.77;17.47;;;12.20;65.80;;;;;;5025755;28;20473;-47
2022/03/16 10:28:14;;;;;;;22.37;17.30;;;12.20;66.40;;;;;;5028685;28;20793;-46
2022/03/16 10:30:56;;;;;;;20.80;16.40;;;12.60;65.90;;;;;;5026441;28;20465;-46
2022/03/16 10:33:29;;;;;;;23.13;17.60;;;12.70;64.40;;;;;;5020401;28;20547;-48
2022/03/16 10:35:55;;;;;;;22.90;17.20;;;12.60;64.70;;;;;;5023570;28;20803;-47
2022/03/16 10:38:22;;;;;;;21.17;18.13;;;12.50;65.10;;;;;;5021399;28;20880;-49
2022/03/16 10:40:49;;;;;;;22.40;17.33;;;12.50;65.30;;;;;;5024780;28;20981;-48
2022/03/16 10:49:01;;;;;;;21.33;17.30;;;13.30;63.60;;;;;;5016892;28;20511;-48
2022/03/16 10:51:27;;;;;;;21.57;16.67;;;13.50;62.40;;;;;;5027597;28;20432;-48
2022/03/16 10:53:53;;;;;;;22.60;17.70;;;13.50;62.60;;;;;;5031523;28;20466;-45
2022/03/16 10:56:20;;;;;;;22.60;16.33;;;13.70;61.70;;;;;;5023738;28;20193;-44
2022/03/16 10:58:46;;;;;;;20.17;17.07;;;14.10;61.90;;;;;;5026242;28;20920;-45
2022/03/16 11:01:14;;;;;;;19.23;15.57;;;14.50;60.30;;;;;;5024377;28;20526;-44
2022/03/16 11:03:43;;;;;;;18.93;16.00;;;14.60;59.40;;;;;;5027293;28;20439;-49
2022/03/16 11:06:09;;;;;;;18.10;15.50;;;14.50;59.00;;;;;;5017329;28;20484;-44
2022/03/16 11:08:37;;;;;;;22.00;16.20;;;14.60;58.90;;;;;;5025480;28;20428;-44
2022/03/16 11:13:28;;;;;;;21.70;16.57;;;14.50;58.80;;;;;;5027792;28;20444;-48
2022/03/16 11:13:52;;;;;;;19.13;16.17;;;14.70;59.10;;;;;;5028656;28;20444;-45
2022/03/16 11:16:21;;;;;;;18.90;16.07;;;15.10;58.90;;;;;;5032969;28;20431;-46
2022/03/16 11:18:48;;;;;;;20.07;16.83;;;15.20;57.60;;;;;;5018048;28;20445;-45
2022/03/16 11:21:21;;;;;;;20.73;15.40;;;15.20;57.60;;;;;;5029445;28;20562;-46
2022/03/16 11:26:49;;;;;;;16.87;15.17;;;15.60;56.80;;;;;;5021879;28;20998;-44
2022/03/16 11:29:23;;;;;;;17.57;15.40;;;15.90;56.00;;;;;;5021199;28;20442;-45
2022/03/16 11:31:49;;;;;;;18.87;16.67;;;15.90;56.30;;;;;;5014603;28;20939;-47
2022/03/16 11:34:22;;;;;;;18.13;15.07;;;16.10;56.10;;;;;;5022896;28;20495;-47
2022/03/16 11:37:00;;;;;;;17.63;15.73;;;16.20;55.50;;;;;;5026492;28;20200;-44
2022/03/16 11:39:25;;;;;;;11.73;10.53;;;16.70;55.30;;;;;;5015179;28;20531;-44
2022/03/16 11:41:54;;;;;;;14.10;11.27;;;16.80;54.30;;;;;;5023754;28;20977;-43
2022/03/16 11:44:29;;;;;;;13.10;11.77;;;17.30;53.30;;;;;;5032587;28;20189;-44
2022/03/16 11:47:09;;;;;;;12.10;9.93;;;17.70;52.80;;;;;;5029971;28;20525;-44
2022/03/16 11:49:38;;;;;;;12.40;10.97;;;18.20;51.70;;;;;;5022341;28;20443;-49
2022/03/16 11:52:05;;;;;;;13.23;11.93;;;18.50;50.60;;;;;;5037169;28;20451;-45
2022/03/16 11:54:52;;;;;;;14.63;13.20;;;18.80;50.00;;;;;;5034588;28;20444;-45
2022/03/16 11:57:53;;;;;;;12.70;11.40;;;19.00;49.00;;;;;;5023072;28;20452;-45
2022/03/16 12:00:22;;;;;;;10.17;9.17;;;19.10;49.10;;;;;;5030237;28;20452;-46
2022/03/16 12:02:59;;;;;;;10.63;9.57;;;19.20;49.00;;;;;;5017738;28;20494;-45
2022/03/16 12:05:26;;;;;;;16.67;13.23;;;19.60;48.10;;;;;;5025373;28;20537;-47
2022/03/16 12:08:11;;;;;;;12.20;10.93;;;19.70;47.90;;;;;;5016950;28;20449;-45
2022/03/16 12:10:45;;;;;;;10.37;9.37;;;19.90;47.60;;;;;;5026307;28;20439;-44
2022/03/16 12:13:12;;;;;;;11.30;10.20;;;20.10;47.20;;;;;;5019084;28;20432;-45
2022/03/16 12:15:38;;;;;;;9.33;8.53;;;20.10;46.70;;;;;;5027763;28;20443;-47
2022/03/16 12:18:04;;;;;;;12.87;11.60;;;20.10;46.60;;;;;;5024457;28;20436;-44
2022/03/16 12:20:38;;;;;;;10.60;9.60;;;20.10;46.50;;;;;;5025777;28;20564;-45
2022/03/16 12:23:11;;;;;;;14.83;13.47;;;20.10;46.90;;;;;;5025404;28;20768;-45
2022/03/16 12:25:42;;;;;;;10.60;9.43;;;19.90;46.80;;;;;;5022164;28;20503;-43
2022/03/16 12:31:03;;;;;;;14.43;12.30;;;19.80;47.00;;;;;;5022105;28;20440;-44
2022/03/16 12:33:32;;;;;;;13.50;12.20;;;19.70;47.50;;;;;;5028143;28;20448;-44
2022/03/16 12:36:12;;;;;;;13.17;11.87;;;19.90;47.50;;;;;;5030175;28;20433;-44
2022/03/16 12:38:41;;;;;;;14.67;13.10;;;19.40;47.70;;;;;;5020472;28;20466;-44
2022/03/16 12:44:01;;;;;;;14.90;12.93;;;19.20;48.30;;;;;;5020659;28;20443;-47
2022/03/16 12:46:33;;;;;;;16.70;15.00;;;18.90;49.30;;;;;;5029309;28;20490;-49
2022/03/16 12:49:14;;;;;;;16.90;14.63;;;18.70;49.20;;;;;;5026232;28;20439;-48